sensor_id;sensor_type;location;lat;lon;timestamp;P1;durP1;ratioP1;P2;durP2;ratioP2
44646;SDS011;56315;-33.902;151.160;2022-07-06T00:00:28;17.58;;;2.42;;
44646;SDS011;56315;-33.902;151.160;2022-07-06T00:02:55;15.05;;;3.55;;
44646;SDS011;56315;-33.902;151.160;2022-07-06T00:05:23;16.27;;;2.95;;
44646;SDS011;56315;-33.902;151.160;2022-07-06T00:07:50;18.30;;;4.18;;
44646;SDS011;56315;-33.902;151.160;2022-07-06T00:10:18;18.42;;;3.15;;
44646;SDS011;56315;-33.902;151.160;2022-07-06T00:12:45;15.02;;;3.58;;
44646;SDS011;56315;-33.902;151.160;2022-07-06T00:15:13;19.02;;;3.85;;
44646;SDS011;56315;-33.902;151.160;2022-07-06T00:17:40;16.10;;;3.17;;
44646;SDS011;56315;-33.902;151.160;2022-07-06T00:20:08;14.18;;;3.10;;
44646;SDS011;56315;-33.902;151.160;2022-07-06T00:22:35;18.75;;;3.38;;
44646;SDS011;56315;-33.902;151.160;2022-07-06T00:25:03;19.92;;;3.03;;
44646;SDS011;56315;-33.902;151.160;2022-07-06T00:27:31;28.00;;;4.05;;
44646;SDS011;56315;-33.902;151.160;2022-07-06T00:29:58;18.60;;;3.47;;
44646;SDS011;56315;-33.902;151.160;2022-07-06T00:32:25;13.23;;;3.00;;
44646;SDS011;56315;-33.902;151.160;2022-07-06T00:34:53;14.25;;;3.30;;
44646;SDS011;56315;-33.902;151.160;2022-07-06T00:37:20;14.10;;;2.72;;
44646;SDS011;56315;-33.902;151.160;2022-07-06T00:39:47;20.40;;;4.05;;
44646;SDS011;56315;-33.902;151.160;2022-07-06T00:42:15;20.45;;;4.72;;
44646;SDS011;56315;-33.902;151.160;2022-07-06T00:44:42;20.85;;;4.80;;
44646;SDS011;56315;-33.902;151.160;2022-07-06T00:47:09;18.23;;;3.60;;
44646;SDS011;56315;-33.902;151.160;2022-07-06T00:49:37;18.95;;;3.90;;
44646;SDS011;56315;-33.902;151.160;2022-07-06T00:52:22;18.65;;;3.38;;
44646;SDS011;56315;-33.902;151.160;2022-07-06T00:54:50;27.15;;;3.70;;
44646;SDS011;56315;-33.902;151.160;2022-07-06T00:57:19;15.93;;;3.42;;
44646;SDS011;56315;-33.902;151.160;2022-07-06T00:59:46;14.88;;;3.55;;
44646;SDS011;56315;-33.902;151.160;2022-07-06T01:02:14;13.95;;;3.35;;
44646;SDS011;56315;-33.902;151.160;2022-07-06T01:04:41;15.93;;;2.47;;
44646;SDS011;56315;-33.902;151.160;2022-07-06T01:07:09;16.45;;;2.90;;
44646;SDS011;56315;-33.902;151.160;2022-07-06T01:09:36;18.27;;;3.20;;
44646;SDS011;56315;-33.902;151.160;2022-07-06T01:12:03;13.30;;;2.80;;
44646;SDS011;56315;-33.902;151.160;2022-07-06T01:14:32;18.27;;;3.40;;
44646;SDS011;56315;-33.902;151.160;2022-07-06T01:17:00;20.52;;;3.65;;
44646;SDS011;56315;-33.902;151.160;2022-07-06T01:19:28;24.00;;;3.40;;
44646;SDS011;56315;-33.902;151.160;2022-07-06T01:21:55;18.60;;;2.88;;
44646;SDS011;56315;-33.902;151.160;2022-07-06T01:24:23;25.27;;;3.78;;
44646;SDS011;56315;-33.902;151.160;2022-07-06T01:26:50;16.23;;;2.60;;
44646;SDS011;56315;-33.902;151.160;2022-07-06T01:29:17;25.65;;;4.43;;
44646;SDS011;56315;-33.902;151.160;2022-07-06T01:31:46;15.45;;;2.97;;
44646;SDS011;56315;-33.902;151.160;2022-07-06T01:34:16;20.05;;;3.28;;
44646;SDS011;56315;-33.902;151.160;2022-07-06T01:36:44;20.08;;;3.00;;
44646;SDS011;56315;-33.902;151.160;2022-07-06T01:39:12;21.55;;;3.38;;
44646;SDS011;56315;-33.902;151.160;2022-07-06T01:41:39;20.20;;;4.03;;
44646;SDS011;56315;-33.902;151.160;2022-07-06T01:44:06;24.52;;;4.20;;
44646;SDS011;56315;-33.902;151.160;2022-07-06T01:46:34;23.23;;;5.28;;
44646;SDS011;56315;-33.902;151.160;2022-07-06T01:49:01;17.08;;;4.75;;
44646;SDS011;56315;-33.902;151.160;2022-07-06T01:51:29;20.77;;;4.55;;
44646;SDS011;56315;-33.902;151.160;2022-07-06T01:53:57;21.35;;;4.20;;
44646;SDS011;56315;-33.902;151.160;2022-07-06T01:56:25;23.58;;;4.57;;
44646;SDS011;56315;-33.902;151.160;2022-07-06T01:58:52;19.60;;;4.68;;
44646;SDS011;56315;-33.902;151.160;2022-07-06T02:01:19;19.10;;;4.07;;
44646;SDS011;56315;-33.902;151.160;2022-07-06T02:03:47;23.30;;;3.90;;
44646;SDS011;56315;-33.902;151.160;2022-07-06T02:06:14;22.10;;;3.92;;
44646;SDS011;56315;-33.902;151.160;2022-07-06T02:08:42;19.17;;;4.72;;
44646;SDS011;56315;-33.902;151.160;2022-07-06T02:11:09;23.23;;;4.80;;
44646;SDS011;56315;-33.902;151.160;2022-07-06T02:13:37;21.52;;;3.20;;
44646;SDS011;56315;-33.902;151.160;2022-07-06T02:16:05;19.00;;;3.58;;
44646;SDS011;56315;-33.902;151.160;2022-07-06T02:18:32;18.98;;;3.28;;
44646;SDS011;56315;-33.902;151.160;2022-07-06T02:21:00;18.88;;;2.90;;
44646;SDS011;56315;-33.902;151.160;2022-07-06T02:23:27;22.02;;;3.40;;
44646;SDS011;56315;-33.902;151.160;2022-07-06T02:25:54;22.15;;;3.80;;
44646;SDS011;56315;-33.902;151.160;2022-07-06T02:28:22;19.40;;;3.03;;
44646;SDS011;56315;-33.902;151.160;2022-07-06T02:30:49;14.25;;;2.58;;
44646;SDS011;56315;-33.902;151.160;2022-07-06T02:33:17;24.08;;;3.92;;
44646;SDS011;56315;-33.902;151.160;2022-07-06T02:35:44;17.42;;;2.95;;
44646;SDS011;56315;-33.902;151.160;2022-07-06T02:38:11;15.20;;;2.70;;
44646;SDS011;56315;-33.902;151.160;2022-07-06T02:40:39;12.00;;;2.20;;
44646;SDS011;56315;-33.902;151.160;2022-07-06T02:43:06;11.27;;;1.83;;
44646;SDS011;56315;-33.902;151.160;2022-07-06T02:45:34;11.02;;;3.05;;
44646;SDS011;56315;-33.902;151.160;2022-07-06T02:48:01;12.07;;;2.55;;
44646;SDS011;56315;-33.902;151.160;2022-07-06T02:50:28;14.90;;;3.13;;
44646;SDS011;56315;-33.902;151.160;2022-07-06T02:52:56;13.98;;;3.08;;
44646;SDS011;56315;-33.902;151.160;2022-07-06T02:55:24;15.90;;;3.28;;
44646;SDS011;56315;-33.902;151.160;2022-07-06T02:57:51;14.20;;;2.80;;
44646;SDS011;56315;-33.902;151.160;2022-07-06T03:00:19;23.73;;;4.22;;
44646;SDS011;56315;-33.902;151.160;2022-07-06T03:02:46;24.40;;;3.35;;
44646;SDS011;56315;-33.902;151.160;2022-07-06T03:05:13;18.63;;;3.05;;
44646;SDS011;56315;-33.902;151.160;2022-07-06T03:07:41;14.95;;;3.03;;
44646;SDS011;56315;-33.902;151.160;2022-07-06T03:10:08;13.43;;;2.47;;
44646;SDS011;56315;-33.902;151.160;2022-07-06T03:12:35;17.92;;;3.58;;
44646;SDS011;56315;-33.902;151.160;2022-07-06T03:15:03;16.50;;;2.97;;
44646;SDS011;56315;-33.902;151.160;2022-07-06T03:17:30;21.42;;;3.20;;
44646;SDS011;56315;-33.902;151.160;2022-07-06T03:19:58;13.95;;;2.92;;
44646;SDS011;56315;-33.902;151.160;2022-07-06T03:22:25;16.60;;;3.78;;
44646;SDS011;56315;-33.902;151.160;2022-07-06T03:24:52;17.92;;;3.75;;
44646;SDS011;56315;-33.902;151.160;2022-07-06T03:27:19;20.70;;;4.13;;
44646;SDS011;56315;-33.902;151.160;2022-07-06T03:29:47;15.65;;;3.35;;
44646;SDS011;56315;-33.902;151.160;2022-07-06T03:32:14;23.50;;;4.63;;
44646;SDS011;56315;-33.902;151.160;2022-07-06T03:34:42;18.98;;;3.15;;
44646;SDS011;56315;-33.902;151.160;2022-07-06T03:37:09;16.05;;;3.30;;
44646;SDS011;56315;-33.902;151.160;2022-07-06T03:39:36;15.77;;;3.55;;
44646;SDS011;56315;-33.902;151.160;2022-07-06T03:42:04;14.73;;;2.92;;
44646;SDS011;56315;-33.902;151.160;2022-07-06T03:44:31;12.75;;;3.38;;
44646;SDS011;56315;-33.902;151.160;2022-07-06T03:46:58;13.27;;;2.78;;
44646;SDS011;56315;-33.902;151.160;2022-07-06T03:49:26;22.20;;;3.22;;
44646;SDS011;56315;-33.902;151.160;2022-07-06T03:51:53;18.15;;;3.45;;
44646;SDS011;56315;-33.902;151.160;2022-07-06T03:54:21;27.20;;;3.70;;
44646;SDS011;56315;-33.902;151.160;2022-07-06T03:56:48;23.17;;;3.55;;
44646;SDS011;56315;-33.902;151.160;2022-07-06T03:59:15;18.90;;;3.83;;
44646;SDS011;56315;-33.902;151.160;2022-07-06T04:01:43;20.55;;;3.53;;
44646;SDS011;56315;-33.902;151.160;2022-07-06T04:04:11;29.77;;;3.90;;
44646;SDS011;56315;-33.902;151.160;2022-07-06T04:06:38;24.60;;;5.30;;
44646;SDS011;56315;-33.902;151.160;2022-07-06T04:09:05;24.65;;;4.00;;
44646;SDS011;56315;-33.902;151.160;2022-07-06T04:11:33;25.25;;;5.43;;
44646;SDS011;56315;-33.902;151.160;2022-07-06T04:14:00;22.40;;;4.57;;
44646;SDS011;56315;-33.902;151.160;2022-07-06T04:16:28;28.40;;;4.45;;
44646;SDS011;56315;-33.902;151.160;2022-07-06T04:18:55;18.33;;;2.95;;
44646;SDS011;56315;-33.902;151.160;2022-07-06T04:21:23;22.33;;;3.15;;
44646;SDS011;56315;-33.902;151.160;2022-07-06T04:23:50;17.05;;;3.33;;
44646;SDS011;56315;-33.902;151.160;2022-07-06T04:26:17;18.13;;;3.10;;
44646;SDS011;56315;-33.902;151.160;2022-07-06T04:28:45;18.45;;;4.03;;
44646;SDS011;56315;-33.902;151.160;2022-07-06T04:31:12;18.92;;;4.45;;
44646;SDS011;56315;-33.902;151.160;2022-07-06T04:33:43;19.15;;;3.53;;
44646;SDS011;56315;-33.902;151.160;2022-07-06T04:36:11;16.48;;;2.53;;
44646;SDS011;56315;-33.902;151.160;2022-07-06T04:38:38;14.27;;;3.05;;
44646;SDS011;56315;-33.902;151.160;2022-07-06T04:41:05;16.05;;;3.22;;
44646;SDS011;56315;-33.902;151.160;2022-07-06T04:43:33;23.30;;;4.10;;
44646;SDS011;56315;-33.902;151.160;2022-07-06T04:46:00;25.95;;;4.10;;
44646;SDS011;56315;-33.902;151.160;2022-07-06T04:48:28;17.15;;;2.83;;
44646;SDS011;56315;-33.902;151.160;2022-07-06T04:50:55;22.10;;;3.03;;
44646;SDS011;56315;-33.902;151.160;2022-07-06T04:53:22;16.20;;;3.67;;
44646;SDS011;56315;-33.902;151.160;2022-07-06T04:55:50;17.80;;;4.43;;
44646;SDS011;56315;-33.902;151.160;2022-07-06T04:58:17;21.95;;;3.45;;
44646;SDS011;56315;-33.902;151.160;2022-07-06T05:00:44;18.75;;;3.78;;
44646;SDS011;56315;-33.902;151.160;2022-07-06T05:03:12;18.40;;;3.15;;
44646;SDS011;56315;-33.902;151.160;2022-07-06T05:05:39;16.27;;;2.97;;
44646;SDS011;56315;-33.902;151.160;2022-07-06T05:11:22;21.55;;;4.13;;
44646;SDS011;56315;-33.902;151.160;2022-07-06T05:17:11;20.63;;;4.20;;
44646;SDS011;56315;-33.902;151.160;2022-07-06T05:19:39;22.08;;;4.70;;
44646;SDS011;56315;-33.902;151.160;2022-07-06T05:22:06;22.30;;;4.38;;
44646;SDS011;56315;-33.902;151.160;2022-07-06T05:24:33;29.73;;;4.70;;
44646;SDS011;56315;-33.902;151.160;2022-07-06T05:27:00;23.92;;;4.97;;
44646;SDS011;56315;-33.902;151.160;2022-07-06T05:29:28;28.88;;;4.72;;
44646;SDS011;56315;-33.902;151.160;2022-07-06T05:31:55;28.85;;;4.68;;
44646;SDS011;56315;-33.902;151.160;2022-07-06T05:34:23;30.25;;;4.72;;
44646;SDS011;56315;-33.902;151.160;2022-07-06T05:36:50;25.70;;;4.75;;
44646;SDS011;56315;-33.902;151.160;2022-07-06T05:39:17;25.35;;;3.33;;
44646;SDS011;56315;-33.902;151.160;2022-07-06T05:41:46;32.33;;;4.80;;
44646;SDS011;56315;-33.902;151.160;2022-07-06T05:44:14;30.88;;;5.15;;
44646;SDS011;56315;-33.902;151.160;2022-07-06T05:46:42;27.30;;;5.93;;
44646;SDS011;56315;-33.902;151.160;2022-07-06T05:49:09;26.98;;;5.78;;
44646;SDS011;56315;-33.902;151.160;2022-07-06T05:51:55;25.70;;;4.32;;
44646;SDS011;56315;-33.902;151.160;2022-07-06T05:54:22;26.88;;;4.35;;
44646;SDS011;56315;-33.902;151.160;2022-07-06T05:56:49;22.92;;;4.72;;
44646;SDS011;56315;-33.902;151.160;2022-07-06T05:59:16;27.42;;;4.55;;
44646;SDS011;56315;-33.902;151.160;2022-07-06T06:01:44;36.22;;;5.78;;
44646;SDS011;56315;-33.902;151.160;2022-07-06T06:04:11;24.58;;;3.40;;
44646;SDS011;56315;-33.902;151.160;2022-07-06T06:06:39;25.08;;;4.38;;
44646;SDS011;56315;-33.902;151.160;2022-07-06T06:09:06;28.38;;;4.57;;
44646;SDS011;56315;-33.902;151.160;2022-07-06T06:11:34;24.58;;;3.70;;
44646;SDS011;56315;-33.902;151.160;2022-07-06T06:14:01;21.88;;;3.20;;
44646;SDS011;56315;-33.902;151.160;2022-07-06T06:16:29;23.85;;;3.67;;
44646;SDS011;56315;-33.902;151.160;2022-07-06T06:18:57;21.98;;;4.03;;
44646;SDS011;56315;-33.902;151.160;2022-07-06T06:21:24;22.50;;;3.92;;
44646;SDS011;56315;-33.902;151.160;2022-07-06T06:23:52;21.73;;;3.95;;
44646;SDS011;56315;-33.902;151.160;2022-07-06T06:26:19;27.02;;;4.55;;
44646;SDS011;56315;-33.902;151.160;2022-07-06T06:28:47;23.33;;;3.75;;
44646;SDS011;56315;-33.902;151.160;2022-07-06T06:31:15;25.13;;;4.40;;
44646;SDS011;56315;-33.902;151.160;2022-07-06T06:33:42;28.90;;;3.85;;
44646;SDS011;56315;-33.902;151.160;2022-07-06T06:36:10;27.83;;;4.15;;
44646;SDS011;56315;-33.902;151.160;2022-07-06T06:38:38;28.17;;;3.30;;
44646;SDS011;56315;-33.902;151.160;2022-07-06T06:41:05;25.85;;;4.47;;
44646;SDS011;56315;-33.902;151.160;2022-07-06T06:43:33;23.13;;;4.15;;
44646;SDS011;56315;-33.902;151.160;2022-07-06T06:46:01;25.40;;;3.50;;
44646;SDS011;56315;-33.902;151.160;2022-07-06T06:48:28;23.33;;;4.35;;
44646;SDS011;56315;-33.902;151.160;2022-07-06T06:50:57;22.92;;;5.13;;
44646;SDS011;56315;-33.902;151.160;2022-07-06T06:53:24;17.73;;;2.85;;
44646;SDS011;56315;-33.902;151.160;2022-07-06T06:55:52;26.63;;;3.97;;
44646;SDS011;56315;-33.902;151.160;2022-07-06T06:58:19;20.35;;;3.00;;
44646;SDS011;56315;-33.902;151.160;2022-07-06T07:00:47;21.63;;;3.72;;
44646;SDS011;56315;-33.902;151.160;2022-07-06T07:03:15;19.08;;;3.25;;
44646;SDS011;56315;-33.902;151.160;2022-07-06T07:05:42;24.70;;;4.65;;
44646;SDS011;56315;-33.902;151.160;2022-07-06T07:08:10;20.15;;;3.28;;
44646;SDS011;56315;-33.902;151.160;2022-07-06T07:10:37;20.13;;;3.63;;
44646;SDS011;56315;-33.902;151.160;2022-07-06T07:13:05;22.67;;;5.00;;
44646;SDS011;56315;-33.902;151.160;2022-07-06T07:15:32;20.85;;;4.63;;
44646;SDS011;56315;-33.902;151.160;2022-07-06T07:18:00;21.38;;;4.90;;
44646;SDS011;56315;-33.902;151.160;2022-07-06T07:20:27;21.20;;;4.63;;
44646;SDS011;56315;-33.902;151.160;2022-07-06T07:22:56;15.18;;;2.90;;
44646;SDS011;56315;-33.902;151.160;2022-07-06T07:25:23;17.70;;;3.08;;
44646;SDS011;56315;-33.902;151.160;2022-07-06T07:27:51;18.52;;;3.33;;
44646;SDS011;56315;-33.902;151.160;2022-07-06T07:30:19;12.35;;;2.83;;
44646;SDS011;56315;-33.902;151.160;2022-07-06T07:32:46;21.13;;;3.47;;
44646;SDS011;56315;-33.902;151.160;2022-07-06T07:35:14;15.85;;;3.58;;
44646;SDS011;56315;-33.902;151.160;2022-07-06T07:37:41;14.20;;;3.30;;
44646;SDS011;56315;-33.902;151.160;2022-07-06T07:40:09;17.77;;;3.10;;
44646;SDS011;56315;-33.902;151.160;2022-07-06T07:42:37;14.23;;;3.25;;
44646;SDS011;56315;-33.902;151.160;2022-07-06T07:45:06;14.00;;;4.22;;
44646;SDS011;56315;-33.902;151.160;2022-07-06T07:47:34;14.10;;;2.38;;
44646;SDS011;56315;-33.902;151.160;2022-07-06T07:50:02;14.05;;;2.97;;
44646;SDS011;56315;-33.902;151.160;2022-07-06T07:52:30;13.02;;;2.17;;
44646;SDS011;56315;-33.902;151.160;2022-07-06T07:54:57;13.75;;;2.78;;
44646;SDS011;56315;-33.902;151.160;2022-07-06T07:57:25;12.85;;;2.42;;
44646;SDS011;56315;-33.902;151.160;2022-07-06T07:59:52;17.52;;;2.83;;
44646;SDS011;56315;-33.902;151.160;2022-07-06T08:02:20;12.65;;;2.78;;
44646;SDS011;56315;-33.902;151.160;2022-07-06T08:04:47;15.73;;;2.95;;
44646;SDS011;56315;-33.902;151.160;2022-07-06T08:07:15;12.40;;;2.17;;
44646;SDS011;56315;-33.902;151.160;2022-07-06T08:09:42;10.68;;;2.20;;
44646;SDS011;56315;-33.902;151.160;2022-07-06T08:12:10;16.50;;;3.25;;
44646;SDS011;56315;-33.902;151.160;2022-07-06T08:14:37;14.20;;;3.50;;
44646;SDS011;56315;-33.902;151.160;2022-07-06T08:17:05;13.52;;;2.95;;
44646;SDS011;56315;-33.902;151.160;2022-07-06T08:19:32;12.32;;;2.17;;
44646;SDS011;56315;-33.902;151.160;2022-07-06T08:22:00;19.00;;;3.65;;
44646;SDS011;56315;-33.902;151.160;2022-07-06T08:24:35;15.63;;;2.60;;
44646;SDS011;56315;-33.902;151.160;2022-07-06T08:27:03;12.43;;;1.98;;
44646;SDS011;56315;-33.902;151.160;2022-07-06T08:29:30;13.38;;;2.13;;
44646;SDS011;56315;-33.902;151.160;2022-07-06T08:31:58;9.77;;;2.00;;
44646;SDS011;56315;-33.902;151.160;2022-07-06T08:34:25;12.00;;;2.90;;
44646;SDS011;56315;-33.902;151.160;2022-07-06T08:36:53;9.50;;;2.55;;
44646;SDS011;56315;-33.902;151.160;2022-07-06T08:39:21;10.88;;;2.20;;
44646;SDS011;56315;-33.902;151.160;2022-07-06T08:41:49;11.02;;;2.83;;
44646;SDS011;56315;-33.902;151.160;2022-07-06T08:44:18;18.70;;;2.90;;
44646;SDS011;56315;-33.902;151.160;2022-07-06T08:46:45;9.20;;;1.50;;
44646;SDS011;56315;-33.902;151.160;2022-07-06T08:49:18;11.43;;;2.40;;
44646;SDS011;56315;-33.902;151.160;2022-07-06T08:51:45;10.68;;;2.22;;
44646;SDS011;56315;-33.902;151.160;2022-07-06T08:54:13;13.82;;;2.20;;
44646;SDS011;56315;-33.902;151.160;2022-07-06T08:56:43;13.20;;;1.85;;
44646;SDS011;56315;-33.902;151.160;2022-07-06T08:59:11;14.85;;;2.10;;
44646;SDS011;56315;-33.902;151.160;2022-07-06T09:01:39;12.45;;;2.28;;
44646;SDS011;56315;-33.902;151.160;2022-07-06T09:04:06;11.88;;;1.95;;
44646;SDS011;56315;-33.902;151.160;2022-07-06T09:06:35;8.15;;;1.50;;
44646;SDS011;56315;-33.902;151.160;2022-07-06T09:09:05;9.23;;;1.90;;
44646;SDS011;56315;-33.902;151.160;2022-07-06T09:11:33;11.20;;;1.73;;
44646;SDS011;56315;-33.902;151.160;2022-07-06T09:14:01;10.45;;;2.58;;
44646;SDS011;56315;-33.902;151.160;2022-07-06T09:16:29;7.78;;;1.50;;
44646;SDS011;56315;-33.902;151.160;2022-07-06T09:18:57;10.68;;;1.30;;
44646;SDS011;56315;-33.902;151.160;2022-07-06T09:21:26;8.48;;;1.45;;
44646;SDS011;56315;-33.902;151.160;2022-07-06T09:24:01;6.32;;;1.27;;
44646;SDS011;56315;-33.902;151.160;2022-07-06T09:26:33;10.55;;;2.35;;
44646;SDS011;56315;-33.902;151.160;2022-07-06T09:29:01;10.02;;;2.13;;
44646;SDS011;56315;-33.902;151.160;2022-07-06T09:31:30;8.57;;;1.27;;
44646;SDS011;56315;-33.902;151.160;2022-07-06T09:34:01;12.85;;;1.50;;
44646;SDS011;56315;-33.902;151.160;2022-07-06T09:39:22;15.38;;;1.85;;
44646;SDS011;56315;-33.902;151.160;2022-07-06T09:41:53;12.15;;;1.45;;
44646;SDS011;56315;-33.902;151.160;2022-07-06T09:44:26;9.57;;;1.58;;
44646;SDS011;56315;-33.902;151.160;2022-07-06T09:46:58;9.20;;;1.45;;
44646;SDS011;56315;-33.902;151.160;2022-07-06T09:49:27;8.00;;;1.50;;
44646;SDS011;56315;-33.902;151.160;2022-07-06T09:51:56;7.85;;;1.42;;
44646;SDS011;56315;-33.902;151.160;2022-07-06T09:54:25;5.93;;;1.52;;
44646;SDS011;56315;-33.902;151.160;2022-07-06T09:56:53;6.03;;;1.20;;
44646;SDS011;56315;-33.902;151.160;2022-07-06T09:59:22;7.68;;;1.40;;
44646;SDS011;56315;-33.902;151.160;2022-07-06T10:01:52;12.65;;;1.95;;
44646;SDS011;56315;-33.902;151.160;2022-07-06T10:04:22;9.63;;;1.50;;
44646;SDS011;56315;-33.902;151.160;2022-07-06T10:06:50;6.43;;;1.52;;
44646;SDS011;56315;-33.902;151.160;2022-07-06T10:09:19;11.13;;;1.88;;
44646;SDS011;56315;-33.902;151.160;2022-07-06T10:11:50;13.52;;;1.35;;
44646;SDS011;56315;-33.902;151.160;2022-07-06T10:14:27;8.38;;;1.77;;
44646;SDS011;56315;-33.902;151.160;2022-07-06T10:16:59;11.95;;;2.40;;
44646;SDS011;56315;-33.902;151.160;2022-07-06T10:19:29;13.25;;;2.13;;
44646;SDS011;56315;-33.902;151.160;2022-07-06T10:22:01;12.13;;;2.00;;
44646;SDS011;56315;-33.902;151.160;2022-07-06T10:24:29;16.95;;;3.25;;
44646;SDS011;56315;-33.902;151.160;2022-07-06T10:26:59;11.93;;;1.95;;
44646;SDS011;56315;-33.902;151.160;2022-07-06T10:29:27;15.82;;;2.30;;
44646;SDS011;56315;-33.902;151.160;2022-07-06T10:31:56;13.13;;;2.15;;
44646;SDS011;56315;-33.902;151.160;2022-07-06T10:34:23;14.27;;;1.90;;
44646;SDS011;56315;-33.902;151.160;2022-07-06T10:36:51;12.27;;;3.00;;
44646;SDS011;56315;-33.902;151.160;2022-07-06T10:39:31;8.45;;;1.67;;
44646;SDS011;56315;-33.902;151.160;2022-07-06T10:45:12;11.82;;;2.30;;
44646;SDS011;56315;-33.902;151.160;2022-07-06T10:47:41;18.08;;;2.60;;
44646;SDS011;56315;-33.902;151.160;2022-07-06T10:50:08;11.65;;;2.35;;
44646;SDS011;56315;-33.902;151.160;2022-07-06T10:52:50;12.77;;;2.05;;
44646;SDS011;56315;-33.902;151.160;2022-07-06T10:55:33;12.80;;;2.33;;
44646;SDS011;56315;-33.902;151.160;2022-07-06T10:58:02;10.93;;;1.63;;
44646;SDS011;56315;-33.902;151.160;2022-07-06T11:03:33;10.50;;;2.10;;
44646;SDS011;56315;-33.902;151.160;2022-07-06T11:06:23;7.63;;;1.75;;
44646;SDS011;56315;-33.902;151.160;2022-07-06T11:09:02;9.38;;;2.20;;
44646;SDS011;56315;-33.902;151.160;2022-07-06T11:14:03;13.25;;;2.45;;
44646;SDS011;56315;-33.902;151.160;2022-07-06T11:16:39;11.20;;;2.22;;
44646;SDS011;56315;-33.902;151.160;2022-07-06T11:21:44;10.98;;;2.00;;
44646;SDS011;56315;-33.902;151.160;2022-07-06T11:24:22;13.32;;;2.50;;
44646;SDS011;56315;-33.902;151.160;2022-07-06T11:26:55;10.85;;;1.80;;
44646;SDS011;56315;-33.902;151.160;2022-07-06T11:29:24;12.18;;;2.20;;
44646;SDS011;56315;-33.902;151.160;2022-07-06T11:31:56;11.35;;;1.95;;
44646;SDS011;56315;-33.902;151.160;2022-07-06T11:34:30;7.93;;;1.27;;
44646;SDS011;56315;-33.902;151.160;2022-07-06T11:37:00;15.00;;;2.10;;
44646;SDS011;56315;-33.902;151.160;2022-07-06T11:39:30;10.60;;;1.55;;
44646;SDS011;56315;-33.902;151.160;2022-07-06T11:42:01;10.02;;;2.10;;
44646;SDS011;56315;-33.902;151.160;2022-07-06T11:44:32;8.73;;;1.90;;
44646;SDS011;56315;-33.902;151.160;2022-07-06T11:47:01;8.35;;;1.70;;
44646;SDS011;56315;-33.902;151.160;2022-07-06T11:49:30;7.95;;;1.90;;
44646;SDS011;56315;-33.902;151.160;2022-07-06T11:51:58;12.48;;;2.17;;
44646;SDS011;56315;-33.902;151.160;2022-07-06T11:54:26;6.10;;;1.63;;
44646;SDS011;56315;-33.902;151.160;2022-07-06T11:56:54;7.07;;;1.10;;
44646;SDS011;56315;-33.902;151.160;2022-07-06T12:01:58;5.35;;;1.13;;
44646;SDS011;56315;-33.902;151.160;2022-07-06T12:04:30;5.93;;;1.20;;
44646;SDS011;56315;-33.902;151.160;2022-07-06T12:07:02;8.38;;;1.48;;
44646;SDS011;56315;-33.902;151.160;2022-07-06T12:09:32;7.47;;;2.00;;
44646;SDS011;56315;-33.902;151.160;2022-07-06T12:12:00;4.97;;;0.95;;
44646;SDS011;56315;-33.902;151.160;2022-07-06T12:14:28;3.45;;;0.93;;
44646;SDS011;56315;-33.902;151.160;2022-07-06T12:17:00;4.93;;;1.08;;
44646;SDS011;56315;-33.902;151.160;2022-07-06T12:19:30;4.13;;;0.90;;
44646;SDS011;56315;-33.902;151.160;2022-07-06T12:21:58;4.82;;;1.17;;
44646;SDS011;56315;-33.902;151.160;2022-07-06T12:24:27;3.45;;;0.85;;
44646;SDS011;56315;-33.902;151.160;2022-07-06T12:27:08;2.28;;;0.73;;
44646;SDS011;56315;-33.902;151.160;2022-07-06T12:29:43;3.85;;;1.00;;
44646;SDS011;56315;-33.902;151.160;2022-07-06T12:32:14;4.00;;;1.00;;
44646;SDS011;56315;-33.902;151.160;2022-07-06T12:34:42;3.63;;;1.52;;
44646;SDS011;56315;-33.902;151.160;2022-07-06T12:37:10;4.38;;;1.48;;
44646;SDS011;56315;-33.902;151.160;2022-07-06T12:39:44;2.97;;;0.90;;
44646;SDS011;56315;-33.902;151.160;2022-07-06T12:42:14;4.03;;;1.48;;
44646;SDS011;56315;-33.902;151.160;2022-07-06T12:44:43;3.30;;;1.08;;
44646;SDS011;56315;-33.902;151.160;2022-07-06T12:47:12;3.42;;;1.10;;
44646;SDS011;56315;-33.902;151.160;2022-07-06T12:49:42;4.75;;;1.20;;
44646;SDS011;56315;-33.902;151.160;2022-07-06T12:52:15;1.88;;;0.98;;
44646;SDS011;56315;-33.902;151.160;2022-07-06T12:54:44;3.13;;;1.40;;
44646;SDS011;56315;-33.902;151.160;2022-07-06T12:57:14;3.00;;;1.02;;
44646;SDS011;56315;-33.902;151.160;2022-07-06T13:00:02;4.25;;;1.35;;
44646;SDS011;56315;-33.902;151.160;2022-07-06T13:02:33;2.67;;;1.05;;
44646;SDS011;56315;-33.902;151.160;2022-07-06T13:05:06;4.95;;;1.70;;
44646;SDS011;56315;-33.902;151.160;2022-07-06T13:07:38;3.50;;;1.10;;
44646;SDS011;56315;-33.902;151.160;2022-07-06T13:10:11;3.95;;;1.20;;
44646;SDS011;56315;-33.902;151.160;2022-07-06T13:12:39;3.17;;;1.45;;
44646;SDS011;56315;-33.902;151.160;2022-07-06T13:15:07;5.93;;;2.10;;
44646;SDS011;56315;-33.902;151.160;2022-07-06T13:17:36;4.18;;;1.63;;
44646;SDS011;56315;-33.902;151.160;2022-07-06T13:20:04;7.30;;;1.95;;
44646;SDS011;56315;-33.902;151.160;2022-07-06T13:22:32;5.00;;;1.52;;
44646;SDS011;56315;-33.902;151.160;2022-07-06T13:25:00;4.10;;;1.65;;
44646;SDS011;56315;-33.902;151.160;2022-07-06T13:27:27;5.95;;;2.38;;
44646;SDS011;56315;-33.902;151.160;2022-07-06T13:29:55;7.38;;;1.70;;
44646;SDS011;56315;-33.902;151.160;2022-07-06T13:32:22;6.30;;;1.55;;
44646;SDS011;56315;-33.902;151.160;2022-07-06T13:34:49;8.13;;;2.00;;
44646;SDS011;56315;-33.902;151.160;2022-07-06T13:37:17;9.45;;;2.05;;
44646;SDS011;56315;-33.902;151.160;2022-07-06T13:39:46;8.18;;;2.60;;
44646;SDS011;56315;-33.902;151.160;2022-07-06T13:42:13;5.93;;;1.75;;
44646;SDS011;56315;-33.902;151.160;2022-07-06T13:44:41;11.77;;;1.90;;
44646;SDS011;56315;-33.902;151.160;2022-07-06T13:47:08;8.70;;;1.80;;
44646;SDS011;56315;-33.902;151.160;2022-07-06T13:49:36;5.85;;;2.00;;
44646;SDS011;56315;-33.902;151.160;2022-07-06T13:52:04;9.70;;;2.08;;
44646;SDS011;56315;-33.902;151.160;2022-07-06T13:54:32;9.35;;;2.08;;
44646;SDS011;56315;-33.902;151.160;2022-07-06T13:57:03;11.55;;;2.20;;
44646;SDS011;56315;-33.902;151.160;2022-07-06T13:59:32;8.45;;;2.13;;
44646;SDS011;56315;-33.902;151.160;2022-07-06T14:01:59;12.10;;;2.72;;
44646;SDS011;56315;-33.902;151.160;2022-07-06T14:04:27;6.60;;;2.22;;
44646;SDS011;56315;-33.902;151.160;2022-07-06T14:06:54;7.30;;;2.00;;
44646;SDS011;56315;-33.902;151.160;2022-07-06T14:09:22;7.13;;;1.83;;
44646;SDS011;56315;-33.902;151.160;2022-07-06T14:11:49;7.15;;;1.77;;
44646;SDS011;56315;-33.902;151.160;2022-07-06T14:14:16;7.47;;;2.00;;
44646;SDS011;56315;-33.902;151.160;2022-07-06T14:16:44;9.80;;;1.88;;
44646;SDS011;56315;-33.902;151.160;2022-07-06T14:19:11;6.53;;;1.65;;
44646;SDS011;56315;-33.902;151.160;2022-07-06T14:21:38;8.13;;;2.38;;
44646;SDS011;56315;-33.902;151.160;2022-07-06T14:24:08;7.88;;;2.15;;
44646;SDS011;56315;-33.902;151.160;2022-07-06T14:26:35;6.95;;;1.80;;
44646;SDS011;56315;-33.902;151.160;2022-07-06T14:29:03;11.02;;;2.05;;